sensor_id;sensor_type;location;lat;lon;timestamp;P1;durP1;ratioP1;P2;durP2;ratioP2
35679;SDS011;21803;53.586;10.040;2023-10-09T00:02:09;1.00;;;0.80;;
35679;SDS011;21803;53.586;10.040;2023-10-09T00:04:37;1.40;;;0.95;;
35679;SDS011;21803;53.586;10.040;2023-10-09T00:07:06;1.38;;;0.90;;
35679;SDS011;21803;53.586;10.040;2023-10-09T00:09:33;1.23;;;1.00;;
35679;SDS011;21803;53.586;10.040;2023-10-09T00:12:11;0.90;;;0.80;;
35679;SDS011;21803;53.586;10.040;2023-10-09T00:14:50;1.33;;;0.68;;
35679;SDS011;21803;53.586;10.040;2023-10-09T00:17:35;0.98;;;0.80;;
35679;SDS011;21803;53.586;10.040;2023-10-09T00:20:02;1.25;;;0.85;;
35679;SDS011;21803;53.586;10.040;2023-10-09T00:22:45;0.98;;;0.80;;
35679;SDS011;21803;53.586;10.040;2023-10-09T00:25:11;1.00;;;0.77;;
35679;SDS011;21803;53.586;10.040;2023-10-09T00:27:40;1.20;;;1.00;;
35679;SDS011;21803;53.586;10.040;2023-10-09T00:30:08;1.00;;;0.80;;
35679;SDS011;21803;53.586;10.040;2023-10-09T00:32:40;0.98;;;0.85;;
35679;SDS011;21803;53.586;10.040;2023-10-09T00:35:07;1.38;;;1.00;;
35679;SDS011;21803;53.586;10.040;2023-10-09T00:37:51;0.93;;;0.75;;
35679;SDS011;21803;53.586;10.040;2023-10-09T00:40:21;1.10;;;0.90;;
35679;SDS011;21803;53.586;10.040;2023-10-09T00:42:52;1.15;;;0.98;;
35679;SDS011;21803;53.586;10.040;2023-10-09T00:45:20;0.80;;;0.70;;
35679;SDS011;21803;53.586;10.040;2023-10-09T00:47:52;0.98;;;0.73;;
35679;SDS011;21803;53.586;10.040;2023-10-09T00:50:23;0.95;;;0.88;;
35679;SDS011;21803;53.586;10.040;2023-10-09T00:52:50;0.80;;;0.68;;
35679;SDS011;21803;53.586;10.040;2023-10-09T00:55:19;0.82;;;0.70;;
35679;SDS011;21803;53.586;10.040;2023-10-09T00:57:47;1.10;;;0.80;;
35679;SDS011;21803;53.586;10.040;2023-10-09T01:00:16;0.90;;;0.73;;
35679;SDS011;21803;53.586;10.040;2023-10-09T01:03:02;1.13;;;0.90;;
35679;SDS011;21803;53.586;10.040;2023-10-09T01:05:38;1.17;;;0.90;;
35679;SDS011;21803;53.586;10.040;2023-10-09T01:08:09;1.42;;;1.08;;
35679;SDS011;21803;53.586;10.040;2023-10-09T01:10:46;0.93;;;0.73;;
35679;SDS011;21803;53.586;10.040;2023-10-09T01:13:30;1.02;;;0.88;;
35679;SDS011;21803;53.586;10.040;2023-10-09T01:16:18;1.13;;;0.80;;
35679;SDS011;21803;53.586;10.040;2023-10-09T01:18:47;1.48;;;1.10;;
35679;SDS011;21803;53.586;10.040;2023-10-09T01:21:22;1.00;;;0.80;;
35679;SDS011;21803;53.586;10.040;2023-10-09T01:23:51;1.00;;;0.80;;
35679;SDS011;21803;53.586;10.040;2023-10-09T01:26:46;0.95;;;0.80;;
35679;SDS011;21803;53.586;10.040;2023-10-09T01:29:16;1.02;;;0.80;;
35679;SDS011;21803;53.586;10.040;2023-10-09T01:31:47;0.90;;;0.80;;
35679;SDS011;21803;53.586;10.040;2023-10-09T01:34:19;0.65;;;0.60;;
35679;SDS011;21803;53.586;10.040;2023-10-09T01:37:27;1.45;;;1.00;;
35679;SDS011;21803;53.586;10.040;2023-10-09T01:39:56;1.17;;;0.80;;
35679;SDS011;21803;53.586;10.040;2023-10-09T01:42:24;1.05;;;0.80;;
35679;SDS011;21803;53.586;10.040;2023-10-09T01:44:59;1.05;;;0.90;;
35679;SDS011;21803;53.586;10.040;2023-10-09T01:47:35;1.35;;;0.80;;
35679;SDS011;21803;53.586;10.040;2023-10-09T01:50:03;1.05;;;0.80;;
35679;SDS011;21803;53.586;10.040;2023-10-09T01:52:37;1.00;;;0.90;;
35679;SDS011;21803;53.586;10.040;2023-10-09T01:55:03;1.45;;;0.90;;
35679;SDS011;21803;53.586;10.040;2023-10-09T01:57:48;1.42;;;0.80;;
35679;SDS011;21803;53.586;10.040;2023-10-09T02:00:13;0.70;;;0.70;;
35679;SDS011;21803;53.586;10.040;2023-10-09T02:02:47;0.98;;;0.73;;
35679;SDS011;21803;53.586;10.040;2023-10-09T02:05:15;1.15;;;0.80;;
35679;SDS011;21803;53.586;10.040;2023-10-09T02:07:41;0.70;;;0.70;;
35679;SDS011;21803;53.586;10.040;2023-10-09T02:10:09;0.77;;;0.77;;
35679;SDS011;21803;53.586;10.040;2023-10-09T02:13:06;1.20;;;0.80;;
35679;SDS011;21803;53.586;10.040;2023-10-09T02:15:36;0.80;;;0.77;;
35679;SDS011;21803;53.586;10.040;2023-10-09T02:18:13;0.80;;;0.80;;
35679;SDS011;21803;53.586;10.040;2023-10-09T02:20:43;1.00;;;0.70;;
35679;SDS011;21803;53.586;10.040;2023-10-09T02:23:28;0.70;;;0.70;;
35679;SDS011;21803;53.586;10.040;2023-10-09T02:26:04;1.17;;;0.80;;
35679;SDS011;21803;53.586;10.040;2023-10-09T02:28:31;1.10;;;0.88;;
35679;SDS011;21803;53.586;10.040;2023-10-09T02:31:00;1.30;;;0.88;;
35679;SDS011;21803;53.586;10.040;2023-10-09T02:33:46;1.08;;;0.70;;
35679;SDS011;21803;53.586;10.040;2023-10-09T02:36:15;1.00;;;0.90;;
35679;SDS011;21803;53.586;10.040;2023-10-09T02:38:40;1.25;;;0.75;;
35679;SDS011;21803;53.586;10.040;2023-10-09T02:41:07;1.02;;;0.90;;
35679;SDS011;21803;53.586;10.040;2023-10-09T02:43:39;1.00;;;0.70;;
35679;SDS011;21803;53.586;10.040;2023-10-09T02:46:11;1.00;;;0.82;;
35679;SDS011;21803;53.586;10.040;2023-10-09T02:48:39;0.80;;;0.80;;
35679;SDS011;21803;53.586;10.040;2023-10-09T02:51:10;0.60;;;0.60;;
35679;SDS011;21803;53.586;10.040;2023-10-09T02:53:51;1.20;;;0.80;;
35679;SDS011;21803;53.586;10.040;2023-10-09T02:56:22;0.70;;;0.60;;
35679;SDS011;21803;53.586;10.040;2023-10-09T02:59:08;1.30;;;0.80;;
35679;SDS011;21803;53.586;10.040;2023-10-09T03:01:37;1.17;;;0.80;;
35679;SDS011;21803;53.586;10.040;2023-10-09T03:04:04;0.77;;;0.68;;
35679;SDS011;21803;53.586;10.040;2023-10-09T03:06:31;1.38;;;0.70;;
35679;SDS011;21803;53.586;10.040;2023-10-09T03:08:59;1.02;;;0.80;;
35679;SDS011;21803;53.586;10.040;2023-10-09T03:11:26;0.88;;;0.70;;
35679;SDS011;21803;53.586;10.040;2023-10-09T03:13:57;0.93;;;0.80;;
35679;SDS011;21803;53.586;10.040;2023-10-09T03:16:22;0.77;;;0.77;;
35679;SDS011;21803;53.586;10.040;2023-10-09T03:18:49;0.98;;;0.80;;
35679;SDS011;21803;53.586;10.040;2023-10-09T03:21:16;0.65;;;0.57;;
35679;SDS011;21803;53.586;10.040;2023-10-09T03:23:42;0.70;;;0.70;;
35679;SDS011;21803;53.586;10.040;2023-10-09T03:26:15;1.00;;;0.80;;
35679;SDS011;21803;53.586;10.040;2023-10-09T03:28:47;1.05;;;0.88;;
35679;SDS011;21803;53.586;10.040;2023-10-09T03:31:13;0.60;;;0.60;;
35679;SDS011;21803;53.586;10.040;2023-10-09T03:33:40;1.70;;;0.60;;
35679;SDS011;21803;53.586;10.040;2023-10-09T03:36:06;0.70;;;0.63;;
35679;SDS011;21803;53.586;10.040;2023-10-09T03:38:34;0.85;;;0.63;;
35679;SDS011;21803;53.586;10.040;2023-10-09T03:41:09;1.60;;;0.80;;
35679;SDS011;21803;53.586;10.040;2023-10-09T03:43:38;0.50;;;0.50;;
35679;SDS011;21803;53.586;10.040;2023-10-09T03:46:07;0.75;;;0.70;;
35679;SDS011;21803;53.586;10.040;2023-10-09T03:48:47;0.70;;;0.70;;
35679;SDS011;21803;53.586;10.040;2023-10-09T03:51:13;1.10;;;0.68;;
35679;SDS011;21803;53.586;10.040;2023-10-09T03:53:46;1.23;;;0.80;;
35679;SDS011;21803;53.586;10.040;2023-10-09T03:56:16;1.10;;;0.80;;
35679;SDS011;21803;53.586;10.040;2023-10-09T03:58:43;1.00;;;0.70;;
35679;SDS011;21803;53.586;10.040;2023-10-09T04:01:11;1.05;;;0.73;;
35679;SDS011;21803;53.586;10.040;2023-10-09T04:03:47;0.95;;;0.80;;
35679;SDS011;21803;53.586;10.040;2023-10-09T04:06:13;1.23;;;0.85;;
35679;SDS011;21803;53.586;10.040;2023-10-09T04:08:42;1.17;;;0.70;;
35679;SDS011;21803;53.586;10.040;2023-10-09T04:11:12;0.80;;;0.68;;
35679;SDS011;21803;53.586;10.040;2023-10-09T04:13:44;0.90;;;0.70;;
35679;SDS011;21803;53.586;10.040;2023-10-09T04:16:14;1.02;;;0.65;;
35679;SDS011;21803;53.586;10.040;2023-10-09T04:18:58;0.95;;;0.70;;
35679;SDS011;21803;53.586;10.040;2023-10-09T04:21:35;0.80;;;0.70;;
35679;SDS011;21803;53.586;10.040;2023-10-09T04:26:34;1.15;;;0.80;;
35679;SDS011;21803;53.586;10.040;2023-10-09T04:29:02;0.60;;;0.60;;
35679;SDS011;21803;53.586;10.040;2023-10-09T04:31:28;1.08;;;0.85;;
35679;SDS011;21803;53.586;10.040;2023-10-09T04:34:02;0.80;;;0.70;;
35679;SDS011;21803;53.586;10.040;2023-10-09T04:36:47;0.93;;;0.63;;
35679;SDS011;21803;53.586;10.040;2023-10-09T04:39:15;0.70;;;0.63;;
35679;SDS011;21803;53.586;10.040;2023-10-09T04:41:50;0.70;;;0.60;;
35679;SDS011;21803;53.586;10.040;2023-10-09T04:44:17;0.95;;;0.70;;
35679;SDS011;21803;53.586;10.040;2023-10-09T04:46:50;0.85;;;0.63;;
35679;SDS011;21803;53.586;10.040;2023-10-09T04:49:35;0.95;;;0.70;;
35679;SDS011;21803;53.586;10.040;2023-10-09T04:52:12;1.05;;;0.70;;
35679;SDS011;21803;53.586;10.040;2023-10-09T04:54:50;1.00;;;0.77;;
35679;SDS011;21803;53.586;10.040;2023-10-09T04:57:37;1.13;;;0.70;;
35679;SDS011;21803;53.586;10.040;2023-10-09T05:00:06;0.82;;;0.65;;
35679;SDS011;21803;53.586;10.040;2023-10-09T05:02:47;0.90;;;0.70;;
35679;SDS011;21803;53.586;10.040;2023-10-09T05:05:23;1.10;;;0.80;;
35679;SDS011;21803;53.586;10.040;2023-10-09T05:08:07;0.95;;;0.70;;
35679;SDS011;21803;53.586;10.040;2023-10-09T05:10:52;0.70;;;0.70;;
35679;SDS011;21803;53.586;10.040;2023-10-09T05:13:40;0.60;;;0.60;;
35679;SDS011;21803;53.586;10.040;2023-10-09T05:16:16;1.10;;;0.70;;
35679;SDS011;21803;53.586;10.040;2023-10-09T05:18:53;0.90;;;0.75;;
35679;SDS011;21803;53.586;10.040;2023-10-09T05:21:34;0.90;;;0.60;;
35679;SDS011;21803;53.586;10.040;2023-10-09T05:24:07;0.93;;;0.70;;
35679;SDS011;21803;53.586;10.040;2023-10-09T05:26:42;0.98;;;0.70;;
35679;SDS011;21803;53.586;10.040;2023-10-09T05:29:16;0.93;;;0.80;;
35679;SDS011;21803;53.586;10.040;2023-10-09T05:31:47;0.75;;;0.65;;
35679;SDS011;21803;53.586;10.040;2023-10-09T05:34:32;0.90;;;0.70;;
35679;SDS011;21803;53.586;10.040;2023-10-09T05:37:05;1.02;;;0.70;;
35679;SDS011;21803;53.586;10.040;2023-10-09T05:39:48;0.60;;;0.60;;
35679;SDS011;21803;53.586;10.040;2023-10-09T05:42:26;0.80;;;0.60;;
35679;SDS011;21803;53.586;10.040;2023-10-09T05:50:30;0.60;;;0.60;;
35679;SDS011;21803;53.586;10.040;2023-10-09T05:52:59;1.23;;;0.80;;
35679;SDS011;21803;53.586;10.040;2023-10-09T05:55:26;0.77;;;0.65;;
35679;SDS011;21803;53.586;10.040;2023-10-09T05:58:30;0.75;;;0.65;;
35679;SDS011;21803;53.586;10.040;2023-10-09T06:01:21;0.82;;;0.68;;
35679;SDS011;21803;53.586;10.040;2023-10-09T06:03:47;0.93;;;0.80;;
35679;SDS011;21803;53.586;10.040;2023-10-09T06:06:31;0.80;;;0.50;;
35679;SDS011;21803;53.586;10.040;2023-10-09T06:09:07;1.30;;;0.80;;
35679;SDS011;21803;53.586;10.040;2023-10-09T06:11:43;1.00;;;0.80;;
35679;SDS011;21803;53.586;10.040;2023-10-09T06:14:19;0.60;;;0.60;;
35679;SDS011;21803;53.586;10.040;2023-10-09T06:16:54;0.98;;;0.70;;
35679;SDS011;21803;53.586;10.040;2023-10-09T06:19:23;1.45;;;0.88;;
35679;SDS011;21803;53.586;10.040;2023-10-09T06:21:57;0.88;;;0.73;;
35679;SDS011;21803;53.586;10.040;2023-10-09T06:24:29;1.27;;;0.63;;
35679;SDS011;21803;53.586;10.040;2023-10-09T06:26:58;0.95;;;0.60;;
35679;SDS011;21803;53.586;10.040;2023-10-09T06:29:24;1.10;;;0.70;;
35679;SDS011;21803;53.586;10.040;2023-10-09T06:32:09;0.80;;;0.50;;
35679;SDS011;21803;53.586;10.040;2023-10-09T06:34:44;1.15;;;0.68;;
35679;SDS011;21803;53.586;10.040;2023-10-09T06:37:17;0.73;;;0.57;;
35679;SDS011;21803;53.586;10.040;2023-10-09T06:39:52;0.80;;;0.57;;
35679;SDS011;21803;53.586;10.040;2023-10-09T06:42:27;1.17;;;0.75;;
35679;SDS011;21803;53.586;10.040;2023-10-09T06:44:59;0.55;;;0.50;;
35679;SDS011;21803;53.586;10.040;2023-10-09T06:47:38;0.85;;;0.70;;
35679;SDS011;21803;53.586;10.040;2023-10-09T06:50:10;0.90;;;0.60;;
35679;SDS011;21803;53.586;10.040;2023-10-09T06:52:45;1.33;;;0.80;;
35679;SDS011;21803;53.586;10.040;2023-10-09T06:55:44;1.20;;;0.65;;
35679;SDS011;21803;53.586;10.040;2023-10-09T07:00:51;1.02;;;0.70;;
35679;SDS011;21803;53.586;10.040;2023-10-09T07:03:19;0.80;;;0.60;;
35679;SDS011;21803;53.586;10.040;2023-10-09T07:06:02;0.60;;;0.60;;
35679;SDS011;21803;53.586;10.040;2023-10-09T07:08:55;1.70;;;0.70;;
35679;SDS011;21803;53.586;10.040;2023-10-09T07:11:44;1.10;;;0.70;;
35679;SDS011;21803;53.586;10.040;2023-10-09T07:14:31;0.50;;;0.50;;
35679;SDS011;21803;53.586;10.040;2023-10-09T07:19:23;1.02;;;0.50;;
35679;SDS011;21803;53.586;10.040;2023-10-09T07:22:07;1.17;;;0.68;;
35679;SDS011;21803;53.586;10.040;2023-10-09T07:24:44;0.50;;;0.50;;
35679;SDS011;21803;53.586;10.040;2023-10-09T07:27:16;1.52;;;0.70;;
35679;SDS011;21803;53.586;10.040;2023-10-09T07:29:42;1.33;;;0.65;;
35679;SDS011;21803;53.586;10.040;2023-10-09T07:32:14;0.82;;;0.70;;
35679;SDS011;21803;53.586;10.040;2023-10-09T07:34:46;0.57;;;0.50;;
35679;SDS011;21803;53.586;10.040;2023-10-09T07:37:18;0.93;;;0.60;;
35679;SDS011;21803;53.586;10.040;2023-10-09T07:39:45;0.80;;;0.70;;
35679;SDS011;21803;53.586;10.040;2023-10-09T07:42:22;1.00;;;0.70;;
35679;SDS011;21803;53.586;10.040;2023-10-09T07:45:00;1.00;;;0.68;;
35679;SDS011;21803;53.586;10.040;2023-10-09T07:47:38;0.80;;;0.60;;
35679;SDS011;21803;53.586;10.040;2023-10-09T07:50:22;1.17;;;0.70;;
35679;SDS011;21803;53.586;10.040;2023-10-09T07:52:47;0.60;;;0.50;;
35679;SDS011;21803;53.586;10.040;2023-10-09T07:55:14;0.80;;;0.57;;
35679;SDS011;21803;53.586;10.040;2023-10-09T07:58:01;0.50;;;0.50;;
35679;SDS011;21803;53.586;10.040;2023-10-09T08:00:35;1.17;;;0.75;;
35679;SDS011;21803;53.586;10.040;2023-10-09T08:03:01;0.52;;;0.52;;
35679;SDS011;21803;53.586;10.040;2023-10-09T08:05:48;0.68;;;0.60;;
35679;SDS011;21803;53.586;10.040;2023-10-09T08:08:14;1.17;;;0.55;;
35679;SDS011;21803;53.586;10.040;2023-10-09T08:10:58;0.90;;;0.80;;
35679;SDS011;21803;53.586;10.040;2023-10-09T08:13:42;0.50;;;0.50;;
35679;SDS011;21803;53.586;10.040;2023-10-09T08:16:26;1.75;;;0.60;;
35679;SDS011;21803;53.586;10.040;2023-10-09T08:19:02;0.80;;;0.70;;
35679;SDS011;21803;53.586;10.040;2023-10-09T08:21:48;1.13;;;0.60;;
35679;SDS011;21803;53.586;10.040;2023-10-09T08:24:33;0.90;;;0.50;;
35679;SDS011;21803;53.586;10.040;2023-10-09T08:27:20;1.05;;;0.60;;
35679;SDS011;21803;53.586;10.040;2023-10-09T08:29:56;0.60;;;0.60;;
35679;SDS011;21803;53.586;10.040;2023-10-09T08:32:47;0.95;;;0.50;;
35679;SDS011;21803;53.586;10.040;2023-10-09T08:35:26;0.90;;;0.60;;
35679;SDS011;21803;53.586;10.040;2023-10-09T08:37:56;0.95;;;0.60;;
35679;SDS011;21803;53.586;10.040;2023-10-09T08:40:31;1.10;;;0.68;;
35679;SDS011;21803;53.586;10.040;2023-10-09T08:48:11;0.52;;;0.52;;
35679;SDS011;21803;53.586;10.040;2023-10-09T08:50:40;0.60;;;0.50;;
35679;SDS011;21803;53.586;10.040;2023-10-09T08:53:09;0.77;;;0.57;;
35679;SDS011;21803;53.586;10.040;2023-10-09T08:55:36;1.35;;;0.80;;
35679;SDS011;21803;53.586;10.040;2023-10-09T08:58:03;0.80;;;0.70;;
35679;SDS011;21803;53.586;10.040;2023-10-09T09:00:43;0.63;;;0.52;;
35679;SDS011;21803;53.586;10.040;2023-10-09T09:03:10;1.00;;;0.73;;
35679;SDS011;21803;53.586;10.040;2023-10-09T09:05:44;0.77;;;0.60;;
35679;SDS011;21803;53.586;10.040;2023-10-09T09:08:24;0.80;;;0.55;;
35679;SDS011;21803;53.586;10.040;2023-10-09T09:10:56;1.02;;;0.70;;
35679;SDS011;21803;53.586;10.040;2023-10-09T09:16:24;0.60;;;0.60;;
35679;SDS011;21803;53.586;10.040;2023-10-09T09:19:00;0.80;;;0.57;;
35679;SDS011;21803;53.586;10.040;2023-10-09T09:21:33;0.80;;;0.60;;
35679;SDS011;21803;53.586;10.040;2023-10-09T09:24:10;0.90;;;0.50;;
35679;SDS011;21803;53.586;10.040;2023-10-09T09:26:55;0.70;;;0.60;;
35679;SDS011;21803;53.586;10.040;2023-10-09T09:29:44;1.15;;;0.70;;
35679;SDS011;21803;53.586;10.040;2023-10-09T09:32:29;0.85;;;0.70;;
35679;SDS011;21803;53.586;10.040;2023-10-09T09:35:00;0.73;;;0.60;;
35679;SDS011;21803;53.586;10.040;2023-10-09T09:37:29;1.23;;;0.77;;
35679;SDS011;21803;53.586;10.040;2023-10-09T09:39:59;0.80;;;0.70;;
35679;SDS011;21803;53.586;10.040;2023-10-09T09:42:42;0.70;;;0.57;;
35679;SDS011;21803;53.586;10.040;2023-10-09T09:45:13;1.15;;;0.57;;
35679;SDS011;21803;53.586;10.040;2023-10-09T09:47:39;0.90;;;0.70;;
35679;SDS011;21803;53.586;10.040;2023-10-09T09:50:11;1.02;;;0.60;;
35679;SDS011;21803;53.586;10.040;2023-10-09T09:52:47;0.90;;;0.70;;
35679;SDS011;21803;53.586;10.040;2023-10-09T09:55:15;1.85;;;0.70;;
35679;SDS011;21803;53.586;10.040;2023-10-09T09:57:47;0.85;;;0.70;;
35679;SDS011;21803;53.586;10.040;2023-10-09T10:00:16;0.82;;;0.50;;
35679;SDS011;21803;53.586;10.040;2023-10-09T10:03:06;0.75;;;0.50;;
35679;SDS011;21803;53.586;10.040;2023-10-09T10:05:38;0.50;;;0.45;;
35679;SDS011;21803;53.586;10.040;2023-10-09T10:08:07;1.90;;;0.65;;
35679;SDS011;21803;53.586;10.040;2023-10-09T10:10:38;0.82;;;0.50;;
35679;SDS011;21803;53.586;10.040;2023-10-09T10:13:13;0.52;;;0.43;;
35679;SDS011;21803;53.586;10.040;2023-10-09T10:18:25;0.70;;;0.50;;
35679;SDS011;21803;53.586;10.040;2023-10-09T10:21:12;0.50;;;0.50;;
35679;SDS011;21803;53.586;10.040;2023-10-09T10:23:59;0.70;;;0.40;;
35679;SDS011;21803;53.586;10.040;2023-10-09T10:26:31;0.60;;;0.50;;
35679;SDS011;21803;53.586;10.040;2023-10-09T10:29:32;0.50;;;0.50;;
35679;SDS011;21803;53.586;10.040;2023-10-09T10:31:59;0.50;;;0.50;;
35679;SDS011;21803;53.586;10.040;2023-10-09T10:34:26;0.50;;;0.50;;
35679;SDS011;21803;53.586;10.040;2023-10-09T10:37:20;1.27;;;0.70;;
35679;SDS011;21803;53.586;10.040;2023-10-09T10:39:53;0.40;;;0.40;;
35679;SDS011;21803;53.586;10.040;2023-10-09T10:42:24;0.65;;;0.55;;
35679;SDS011;21803;53.586;10.040;2023-10-09T10:44:59;0.70;;;0.60;;
35679;SDS011;21803;53.586;10.040;2023-10-09T10:47:48;0.98;;;0.68;;
35679;SDS011;21803;53.586;10.040;2023-10-09T10:50:14;1.13;;;0.82;;
35679;SDS011;21803;53.586;10.040;2023-10-09T10:53:06;0.90;;;0.65;;
35679;SDS011;21803;53.586;10.040;2023-10-09T10:55:39;0.80;;;0.60;;
35679;SDS011;21803;53.586;10.040;2023-10-09T10:58:21;0.60;;;0.50;;
35679;SDS011;21803;53.586;10.040;2023-10-09T11:00:53;1.05;;;0.60;;
35679;SDS011;21803;53.586;10.040;2023-10-09T11:03:22;0.70;;;0.45;;
35679;SDS011;21803;53.586;10.040;2023-10-09T11:05:54;0.93;;;0.50;;
35679;SDS011;21803;53.586;10.040;2023-10-09T11:08:23;0.88;;;0.60;;
35679;SDS011;21803;53.586;10.040;2023-10-09T11:11:10;0.52;;;0.50;;
35679;SDS011;21803;53.586;10.040;2023-10-09T11:13:40;0.70;;;0.55;;
35679;SDS011;21803;53.586;10.040;2023-10-09T11:16:19;0.50;;;0.50;;
35679;SDS011;21803;53.586;10.040;2023-10-09T11:18:59;0.82;;;0.60;;
35679;SDS011;21803;53.586;10.040;2023-10-09T11:21:37;0.85;;;0.57;;
35679;SDS011;21803;53.586;10.040;2023-10-09T11:24:07;0.98;;;0.50;;
35679;SDS011;21803;53.586;10.040;2023-10-09T11:26:52;1.15;;;0.73;;
35679;SDS011;21803;53.586;10.040;2023-10-09T11:29:21;0.60;;;0.60;;
35679;SDS011;21803;53.586;10.040;2023-10-09T11:32:07;0.38;;;0.38;;
35679;SDS011;21803;53.586;10.040;2023-10-09T11:35:09;0.45;;;0.43;;
35679;SDS011;21803;53.586;10.040;2023-10-09T11:37:56;1.00;;;0.60;;
35679;SDS011;21803;53.586;10.040;2023-10-09T11:40:28;1.08;;;0.68;;
35679;SDS011;21803;53.586;10.040;2023-10-09T11:43:13;1.30;;;0.80;;
35679;SDS011;21803;53.586;10.040;2023-10-09T11:45:39;0.70;;;0.60;;
35679;SDS011;21803;53.586;10.040;2023-10-09T11:48:17;0.68;;;0.52;;
35679;SDS011;21803;53.586;10.040;2023-10-09T11:51:11;1.42;;;0.85;;
35679;SDS011;21803;53.586;10.040;2023-10-09T11:53:44;0.47;;;0.47;;
35679;SDS011;21803;53.586;10.040;2023-10-09T11:56:21;0.50;;;0.50;;
35679;SDS011;21803;53.586;10.040;2023-10-09T11:58:47;0.45;;;0.40;;
35679;SDS011;21803;53.586;10.040;2023-10-09T12:01:15;0.40;;;0.40;;
35679;SDS011;21803;53.586;10.040;2023-10-09T12:03:48;0.82;;;0.50;;
35679;SDS011;21803;53.586;10.040;2023-10-09T12:06:19;0.90;;;0.52;;
35679;SDS011;21803;53.586;10.040;2023-10-09T12:08:47;1.25;;;0.63;;
35679;SDS011;21803;53.586;10.040;2023-10-09T12:11:13;0.47;;;0.47;;
35679;SDS011;21803;53.586;10.040;2023-10-09T12:13:47;0.45;;;0.45;;
35679;SDS011;21803;53.586;10.040;2023-10-09T12:16:21;0.73;;;0.50;;
35679;SDS011;21803;53.586;10.040;2023-10-09T12:18:47;0.43;;;0.43;;
35679;SDS011;21803;53.586;10.040;2023-10-09T12:21:18;0.50;;;0.40;;
35679;SDS011;21803;53.586;10.040;2023-10-09T12:23:43;0.63;;;0.50;;
35679;SDS011;21803;53.586;10.040;2023-10-09T12:26:12;0.70;;;0.60;;
35679;SDS011;21803;53.586;10.040;2023-10-09T12:28:41;0.52;;;0.40;;
35679;SDS011;21803;53.586;10.040;2023-10-09T12:31:15;0.98;;;0.50;;
35679;SDS011;21803;53.586;10.040;2023-10-09T12:33:44;0.47;;;0.47;;
35679;SDS011;21803;53.586;10.040;2023-10-09T12:36:12;0.77;;;0.60;;
35679;SDS011;21803;53.586;10.040;2023-10-09T12:38:45;0.65;;;0.50;;
35679;SDS011;21803;53.586;10.040;2023-10-09T12:41:15;0.70;;;0.50;;
35679;SDS011;21803;53.586;10.040;2023-10-09T12:43:51;0.50;;;0.50;;
35679;SDS011;21803;53.586;10.040;2023-10-09T12:46:18;0.32;;;0.30;;
35679;SDS011;21803;53.586;10.040;2023-10-09T12:48:48;0.38;;;0.38;;
35679;SDS011;21803;53.586;10.040;2023-10-09T12:51:14;0.85;;;0.60;;
35679;SDS011;21803;53.586;10.040;2023-10-09T12:53:43;0.50;;;0.50;;
35679;SDS011;21803;53.586;10.040;2023-10-09T12:56:09;1.13;;;0.50;;
35679;SDS011;21803;53.586;10.040;2023-10-09T12:58:37;0.70;;;0.60;;
35679;SDS011;21803;53.586;10.040;2023-10-09T13:01:17;0.50;;;0.40;;
35679;SDS011;21803;53.586;10.040;2023-10-09T13:03:44;0.40;;;0.40;;
35679;SDS011;21803;53.586;10.040;2023-10-09T13:06:14;0.50;;;0.50;;
35679;SDS011;21803;53.586;10.040;2023-10-09T13:08:40;1.02;;;0.50;;
35679;SDS011;21803;53.586;10.040;2023-10-09T13:11:07;0.55;;;0.50;;
35679;SDS011;21803;53.586;10.040;2023-10-09T13:13:41;0.55;;;0.50;;
35679;SDS011;21803;53.586;10.040;2023-10-09T13:18:37;0.57;;;0.50;;
35679;SDS011;21803;53.586;10.040;2023-10-09T13:21:12;0.57;;;0.50;;
35679;SDS011;21803;53.586;10.040;2023-10-09T13:23:37;0.40;;;0.30;;
35679;SDS011;21803;53.586;10.040;2023-10-09T13:26:05;0.80;;;0.63;;
35679;SDS011;21803;53.586;10.040;2023-10-09T13:28:43;0.70;;;0.50;;
35679;SDS011;21803;53.586;10.040;2023-10-09T13:31:15;0.50;;;0.45;;
35679;SDS011;21803;53.586;10.040;2023-10-09T13:33:43;0.80;;;0.52;;
35679;SDS011;21803;53.586;10.040;2023-10-09T13:36:10;0.70;;;0.40;;
35679;SDS011;21803;53.586;10.040;2023-10-09T13:39:06;0.57;;;0.55;;
35679;SDS011;21803;53.586;10.040;2023-10-09T13:41:52;0.50;;;0.50;;
35679;SDS011;21803;53.586;10.040;2023-10-09T13:44:26;0.30;;;0.30;;
35679;SDS011;21803;53.586;10.040;2023-10-09T13:46:56;0.75;;;0.63;;
35679;SDS011;21803;53.586;10.040;2023-10-09T13:49:22;0.60;;;0.50;;
35679;SDS011;21803;53.586;10.040;2023-10-09T13:51:48;0.40;;;0.40;;
35679;SDS011;21803;53.586;10.040;2023-10-09T13:54:15;0.45;;;0.40;;
35679;SDS011;21803;53.586;10.040;2023-10-09T13:56:53;0.60;;;0.60;;
35679;SDS011;21803;53.586;10.040;2023-10-09T13:59:23;0.40;;;0.40;;
35679;SDS011;21803;53.586;10.040;2023-10-09T14:01:50;0.50;;;0.50;;
35679;SDS011;21803;53.586;10.040;2023-10-09T14:04:19;0.80;;;0.50;;
35679;SDS011;21803;53.586;10.040;2023-10-09T14:06:45;0.70;;;0.50;;
35679;SDS011;21803;53.586;10.040;2023-10-09T14:09:10;0.80;;;0.38;;
35679;SDS011;21803;53.586;10.040;2023-10-09T14:11:52;0.70;;;0.60;;
35679;SDS011;21803;53.586;10.040;2023-10-09T14:14:35;0.65;;;0.50;;
35679;SDS011;21803;53.586;10.040;2023-10-09T14:17:11;0.70;;;0.50;;
35679;SDS011;21803;53.586;10.040;2023-10-09T14:19:41;0.60;;;0.50;;
35679;SDS011;21803;53.586;10.040;2023-10-09T14:22:16;0.52;;;0.52;;
35679;SDS011;21803;53.586;10.040;2023-10-09T14:24:45;0.52;;;0.50;;
35679;SDS011;21803;53.586;10.040;2023-10-09T14:27:13;0.47;;;0.47;;
35679;SDS011;21803;53.586;10.040;2023-10-09T14:29:46;0.57;;;0.57;;
35679;SDS011;21803;53.586;10.040;2023-10-09T14:32:12;0.75;;;0.50;;
35679;SDS011;21803;53.586;10.040;2023-10-09T14:34:38;0.75;;;0.47;;
35679;SDS011;21803;53.586;10.040;2023-10-09T14:37:10;0.57;;;0.43;;
35679;SDS011;21803;53.586;10.040;2023-10-09T14:39:37;0.43;;;0.40;;
35679;SDS011;21803;53.586;10.040;2023-10-09T14:42:04;0.38;;;0.38;;
35679;SDS011;21803;53.586;10.040;2023-10-09T14:44:34;0.50;;;0.45;;
35679;SDS011;21803;53.586;10.040;2023-10-09T14:47:06;0.65;;;0.50;;
35679;SDS011;21803;53.586;10.040;2023-10-09T14:49:32;0.60;;;0.50;;
35679;SDS011;21803;53.586;10.040;2023-10-09T14:52:02;0.57;;;0.52;;
35679;SDS011;21803;53.586;10.040;2023-10-09T14:54:33;0.40;;;0.30;;
35679;SDS011;21803;53.586;10.040;2023-10-09T14:56:59;0.60;;;0.60;;
35679;SDS011;21803;53.586;10.040;2023-10-09T14:59:25;0.70;;;0.40;;
35679;SDS011;21803;53.586;10.040;2023-10-09T15:01:50;0.50;;;0.50;;
35679;SDS011;21803;53.586;10.040;2023-10-09T15:04:18;0.60;;;0.60;;
35679;SDS011;21803;53.586;10.040;2023-10-09T15:06:45;0.40;;;0.40;;
35679;SDS011;21803;53.586;10.040;2023-10-09T15:09:14;0.60;;;0.52;;
35679;SDS011;21803;53.586;10.040;2023-10-09T15:11:53;0.43;;;0.40;;
35679;SDS011;21803;53.586;10.040;2023-10-09T15:14:19;0.63;;;0.50;;
35679;SDS011;21803;53.586;10.040;2023-10-09T15:16:46;0.68;;;0.50;;
35679;SDS011;21803;53.586;10.040;2023-10-09T15:19:12;0.68;;;0.50;;
35679;SDS011;21803;53.586;10.040;2023-10-09T15:21:39;0.50;;;0.50;;
35679;SDS011;21803;53.586;10.040;2023-10-09T15:24:14;0.50;;;0.50;;
35679;SDS011;21803;53.586;10.040;2023-10-09T15:26:42;0.70;;;0.43;;
35679;SDS011;21803;53.586;10.040;2023-10-09T15:29:08;0.60;;;0.60;;
35679;SDS011;21803;53.586;10.040;2023-10-09T15:31:35;0.80;;;0.60;;
35679;SDS011;21803;53.586;10.040;2023-10-09T15:34:05;0.93;;;0.50;;
35679;SDS011;21803;53.586;10.040;2023-10-09T15:36:33;0.60;;;0.50;;
35679;SDS011;21803;53.586;10.040;2023-10-09T15:39:00;0.60;;;0.50;;